createdAt,value
2022-12-31T00:02:25.000Z,13.88
2022-12-31T00:07:25.000Z,13.78
2022-12-31T00:12:24.000Z,13.85
2022-12-31T00:17:25.000Z,14.04
2022-12-31T00:22:24.000Z,13.78
2022-12-31T00:27:24.000Z,13.24
2022-12-31T00:32:24.000Z,13.45
2022-12-31T00:42:25.000Z,13.17
2022-12-31T00:47:24.000Z,13.36
2022-12-31T00:52:25.000Z,13.39
2022-12-31T00:57:24.000Z,13.22
2022-12-31T01:02:25.000Z,13.21
2022-12-31T01:07:24.000Z,12.9
2022-12-31T01:12:25.000Z,12.57
2022-12-31T01:17:24.000Z,12.71
2022-12-31T01:22:24.000Z,13.23
2022-12-31T01:27:24.000Z,12.28
2022-12-31T01:32:25.000Z,11.78
2022-12-31T01:37:24.000Z,11.68
2022-12-31T01:42:25.000Z,11.32
2022-12-31T01:47:24.000Z,11.54
2022-12-31T01:52:25.000Z,11.55
2022-12-31T01:57:24.000Z,11.52
2022-12-31T02:02:24.000Z,10.97
2022-12-31T02:07:24.000Z,10.93
2022-12-31T02:12:25.000Z,10.56
2022-12-31T02:17:24.000Z,10.35
2022-12-31T02:22:24.000Z,10.29
2022-12-31T02:27:24.000Z,10.28
2022-12-31T02:32:24.000Z,10.59
2022-12-31T02:37:24.000Z,10.22
2022-12-31T02:42:24.000Z,9.61
2022-12-31T02:47:24.000Z,9.09
2022-12-31T02:52:24.000Z,9.19
2022-12-31T02:57:24.000Z,9.4
2022-12-31T03:02:25.000Z,9.3
2022-12-31T03:07:25.000Z,9.15
2022-12-31T03:12:24.000Z,9.77
2022-12-31T03:17:25.000Z,9.96
2022-12-31T03:22:24.000Z,9.97
2022-12-31T03:27:24.000Z,9.99
2022-12-31T03:32:25.000Z,9.83
2022-12-31T03:37:24.000Z,9.72
2022-12-31T03:42:24.000Z,9.68
2022-12-31T03:52:24.000Z,9.63
2022-12-31T03:57:24.000Z,9.41
2022-12-31T04:02:24.000Z,9.56
2022-12-31T04:07:24.000Z,9.11
2022-12-31T04:12:24.000Z,9.1
2022-12-31T04:17:24.000Z,9.81
2022-12-31T04:22:24.000Z,9.27
2022-12-31T04:27:24.000Z,9.25
2022-12-31T04:32:24.000Z,9.37
2022-12-31T04:37:25.000Z,9.41
2022-12-31T04:42:24.000Z,9.43
2022-12-31T04:47:24.000Z,10.27
2022-12-31T04:52:24.000Z,9.86
2022-12-31T04:57:24.000Z,9.09
2022-12-31T05:07:24.000Z,9.14
2022-12-31T05:12:24.000Z,9.49
2022-12-31T05:17:24.000Z,9.43
2022-12-31T05:22:24.000Z,9.13
2022-12-31T05:27:24.000Z,9.1
2022-12-31T05:32:24.000Z,9.28
2022-12-31T05:37:25.000Z,8.96
2022-12-31T05:42:24.000Z,8.97
2022-12-31T05:47:24.000Z,9.14
2022-12-31T05:52:25.000Z,9.03
2022-12-31T05:57:24.000Z,9.18
2022-12-31T06:02:24.000Z,9.7
2022-12-31T06:12:24.000Z,10.79
2022-12-31T06:17:24.000Z,9.91
2022-12-31T06:22:24.000Z,10.48
2022-12-31T06:27:25.000Z,10.97
2022-12-31T06:32:24.000Z,12.5
2022-12-31T06:37:25.000Z,11.67
2022-12-31T06:42:24.000Z,11.1
2022-12-31T06:47:25.000Z,10.9
2022-12-31T06:52:24.000Z,10.58
2022-12-31T06:57:24.000Z,10.6
2022-12-31T07:02:24.000Z,10.48
2022-12-31T07:07:24.000Z,10.38
2022-12-31T07:12:24.000Z,10.25
2022-12-31T07:17:24.000Z,9.99
2022-12-31T07:22:24.000Z,9.36
2022-12-31T07:27:25.000Z,9.39
2022-12-31T07:32:24.000Z,9.4
2022-12-31T07:37:25.000Z,9.43
2022-12-31T07:42:24.000Z,9.38
2022-12-31T07:47:25.000Z,8.99
2022-12-31T07:52:24.000Z,8.42
2022-12-31T07:57:24.000Z,8.08
2022-12-31T08:02:25.000Z,8.07
2022-12-31T08:07:24.000Z,8.11
2022-12-31T08:12:25.000Z,7.98
2022-12-31T08:17:24.000Z,7.55
2022-12-31T08:22:24.000Z,8.07
2022-12-31T08:27:25.000Z,7.41
2022-12-31T08:32:24.000Z,7.26
2022-12-31T08:37:25.000Z,6.83
2022-12-31T08:42:24.000Z,8.82
2022-12-31T08:47:25.000Z,7.12
2022-12-31T08:52:24.000Z,6.56
2022-12-31T08:57:25.000Z,6.55
2022-12-31T09:02:24.000Z,6.87
2022-12-31T09:07:25.000Z,6.38
2022-12-31T09:12:24.000Z,6.06
2022-12-31T09:17:24.000Z,6.6
2022-12-31T09:22:24.000Z,6.52
2022-12-31T09:27:24.000Z,6.35
2022-12-31T09:32:25.000Z,6.64
2022-12-31T09:37:24.000Z,6.8
2022-12-31T09:42:24.000Z,6.47
2022-12-31T09:47:24.000Z,6.47
2022-12-31T09:52:25.000Z,6.57
2022-12-31T09:57:24.000Z,6.34
2022-12-31T10:02:24.000Z,6.09
2022-12-31T10:07:25.000Z,6.54
2022-12-31T10:12:24.000Z,6.91
2022-12-31T10:17:24.000Z,7.24
2022-12-31T10:22:24.000Z,7.99
2022-12-31T10:27:24.000Z,7.94
2022-12-31T10:32:24.000Z,7.58
2022-12-31T10:37:24.000Z,7.37
2022-12-31T10:42:25.000Z,7.36
2022-12-31T10:47:25.000Z,7.01
2022-12-31T10:52:24.000Z,6.78
2022-12-31T10:57:25.000Z,6.68
2022-12-31T11:02:24.000Z,6.56
2022-12-31T11:07:25.000Z,7
2022-12-31T11:12:24.000Z,7.16
2022-12-31T11:17:24.000Z,6.78
2022-12-31T11:22:24.000Z,6.73
2022-12-31T11:27:25.000Z,7.01
2022-12-31T11:32:24.000Z,6.83
2022-12-31T11:37:25.000Z,7.7
2022-12-31T11:42:24.000Z,7.24
2022-12-31T11:47:25.000Z,7
2022-12-31T11:52:24.000Z,7.56
2022-12-31T11:57:24.000Z,7.13
2022-12-31T12:02:24.000Z,7.12
2022-12-31T12:07:25.000Z,7.1
2022-12-31T12:12:24.000Z,7.15
2022-12-31T12:17:24.000Z,7.43
2022-12-31T12:22:24.000Z,7.02
2022-12-31T12:32:24.000Z,7.07
2022-12-31T12:37:25.000Z,7.6
2022-12-31T12:42:24.000Z,7.48
2022-12-31T12:47:24.000Z,7.95
2022-12-31T12:52:24.000Z,7.58
2022-12-31T12:57:24.000Z,8.03
2022-12-31T13:02:24.000Z,7.55
2022-12-31T13:07:25.000Z,7.66
2022-12-31T13:12:24.000Z,7.37
2022-12-31T13:17:24.000Z,7.34
2022-12-31T13:22:25.000Z,6.8
2022-12-31T13:27:24.000Z,7.11
2022-12-31T13:32:24.000Z,6.87
2022-12-31T13:37:25.000Z,6.58
2022-12-31T13:47:25.000Z,6.47
2022-12-31T13:52:24.000Z,6.38
2022-12-31T13:57:25.000Z,6.96
2022-12-31T14:02:24.000Z,7.22
2022-12-31T14:07:24.000Z,7.88
2022-12-31T14:12:25.000Z,8.62
2022-12-31T14:17:25.000Z,9.22
2022-12-31T14:27:25.000Z,9.88
2022-12-31T14:32:24.000Z,9.72
2022-12-31T14:37:24.000Z,9.64
2022-12-31T14:42:24.000Z,9.91
2022-12-31T14:47:24.000Z,9.76
2022-12-31T14:52:24.000Z,9.81
2022-12-31T14:57:24.000Z,9.94
2022-12-31T15:02:24.000Z,10.95
2022-12-31T15:07:25.000Z,11.91
2022-12-31T15:12:24.000Z,12.77
2022-12-31T15:17:25.000Z,12.98
2022-12-31T15:22:24.000Z,13.46
2022-12-31T15:27:25.000Z,14.53
2022-12-31T15:32:24.000Z,15.22
2022-12-31T15:37:24.000Z,16.3
2022-12-31T15:42:24.000Z,15.71
2022-12-31T15:47:25.000Z,14.51
2022-12-31T15:52:24.000Z,14.72
2022-12-31T15:57:24.000Z,14.28
2022-12-31T16:02:25.000Z,13.68
2022-12-31T16:07:24.000Z,11.34
2022-12-31T16:12:24.000Z,8.93
2022-12-31T16:17:24.000Z,8.11
2022-12-31T16:22:25.000Z,9.04
2022-12-31T16:27:24.000Z,9.46
2022-12-31T16:32:24.000Z,9.93
2022-12-31T16:37:25.000Z,13.71
2022-12-31T16:42:24.000Z,15.54
2022-12-31T16:47:24.000Z,12.01
2022-12-31T16:52:24.000Z,10.65
2022-12-31T16:57:25.000Z,10.43
2022-12-31T17:02:24.000Z,10.71
2022-12-31T17:07:24.000Z,10.49
2022-12-31T17:12:24.000Z,10.2
2022-12-31T17:17:24.000Z,10.19
2022-12-31T17:22:25.000Z,10.47
2022-12-31T17:27:24.000Z,10.54
2022-12-31T17:32:24.000Z,10.47
2022-12-31T17:37:24.000Z,10.11
2022-12-31T17:42:25.000Z,9.86
2022-12-31T17:47:24.000Z,10.64
2022-12-31T17:52:25.000Z,10.24
2022-12-31T17:57:24.000Z,9.67
2022-12-31T18:02:25.000Z,10.1
2022-12-31T18:07:24.000Z,9.08
2022-12-31T18:12:25.000Z,8.25
2022-12-31T18:17:25.000Z,7.69
2022-12-31T18:22:24.000Z,7.9
2022-12-31T18:27:24.000Z,7.62
2022-12-31T18:32:24.000Z,7.14
2022-12-31T18:37:25.000Z,7.01
2022-12-31T18:42:24.000Z,6.43
2022-12-31T18:47:25.000Z,6.92
2022-12-31T18:52:25.000Z,7.32
2022-12-31T18:57:25.000Z,7.17
2022-12-31T19:07:25.000Z,9.15
2022-12-31T19:12:24.000Z,10.04
2022-12-31T19:17:24.000Z,8.89
2022-12-31T19:22:25.000Z,8.74
2022-12-31T19:27:24.000Z,10.79
2022-12-31T19:32:25.000Z,11.55
2022-12-31T19:37:24.000Z,7.16
2022-12-31T19:42:24.000Z,6.77
2022-12-31T19:47:24.000Z,6.86
2022-12-31T19:52:24.000Z,7.74
2022-12-31T19:57:25.000Z,6.35
2022-12-31T20:02:25.000Z,5.41
2022-12-31T20:07:24.000Z,5.41
2022-12-31T20:12:24.000Z,5.37
2022-12-31T20:17:24.000Z,5.12
2022-12-31T20:22:25.000Z,5.35
2022-12-31T20:27:25.000Z,5.7
2022-12-31T20:32:24.000Z,5.82
2022-12-31T20:37:24.000Z,5.56
2022-12-31T20:42:24.000Z,5.55
2022-12-31T20:47:24.000Z,5.85
2022-12-31T20:52:24.000Z,5.99
2022-12-31T20:57:25.000Z,6.13
2022-12-31T21:02:24.000Z,6.11
2022-12-31T21:07:25.000Z,6.17
2022-12-31T21:12:25.000Z,5.92
2022-12-31T21:17:24.000Z,6.98
2022-12-31T21:22:25.000Z,20.65
2022-12-31T21:27:25.000Z,13.38
2022-12-31T21:32:24.000Z,9.35
2022-12-31T21:37:25.000Z,7.71
2022-12-31T21:42:24.000Z,7.8
2022-12-31T21:47:25.000Z,10.03
2022-12-31T21:52:24.000Z,12.46
2022-12-31T21:57:24.000Z,13.6
2022-12-31T22:02:25.000Z,17.93
2022-12-31T22:12:25.000Z,56.42
2022-12-31T22:17:24.000Z,41.82
2022-12-31T22:22:25.000Z,22.95
2022-12-31T22:27:24.000Z,14.74
2022-12-31T22:32:25.000Z,12.35
2022-12-31T22:37:24.000Z,10.97
2022-12-31T22:42:24.000Z,10.3
2022-12-31T22:47:25.000Z,10.95
2022-12-31T22:52:24.000Z,11.08
2022-12-31T22:57:25.000Z,11.97
2022-12-31T23:02:24.000Z,10.15
2022-12-31T23:07:25.000Z,9.74
2022-12-31T23:12:24.000Z,9.63
2022-12-31T23:17:25.000Z,9.16
2022-12-31T23:22:24.000Z,8.9
2022-12-31T23:27:24.000Z,8.65
2022-12-31T23:32:25.000Z,11.08
2022-12-31T23:42:24.000Z,8.56
2022-12-31T23:47:25.000Z,8.52
2022-12-31T23:57:24.000Z,8.3
